Time;durP1;ratioP1;P1;durP2;ratioP2;P2;SDS_P1;SDS_P2;PMS_P1;PMS_P2;Temp;Humidity;BMP_temperature;BMP_pressure;BME280_temperature;BME280_humidity;BME280_pressure;Samples;Min_cycle;Max_cycle;Signal;HPM_P1;HPM_P2
2023/10/10 00:02:18;;;;;;;;;;;;;;;17.82;58.74;101062.63;6145799;23;7107;-75
2023/10/10 00:04:49;;;;;;;;;;;;;;;17.78;59.03;101063.38;6146564;23;6767;-75
2023/10/10 00:07:16;;;;;;;;;;;;;;;17.77;58.71;101070.25;6147122;23;7664;-74
2023/10/10 00:09:44;;;;;;;;;;;;;;;17.74;59.26;101064.09;6122111;23;7095;-75
2023/10/10 00:12:18;;;;;;;;;;;;;;;17.70;58.54;101065.72;6146875;23;6775;-75
2023/10/10 00:14:50;;;;;;;;;;;;;;;17.68;59.12;101070.00;6122837;23;7306;-75
2023/10/10 00:17:20;;;;;;;;;;;;;;;17.63;59.23;101072.44;6148074;23;6896;-75
2023/10/10 00:19:54;;;;;;;;;;;;;;;17.60;58.97;101072.38;6146494;23;6835;-75
2023/10/10 00:22:34;;;;;;;;;;;;;;;17.57;58.80;101059.28;6147101;23;6794;-75
2023/10/10 00:25:04;;;;;;;;;;;;;;;17.54;58.76;101060.94;6146566;23;6839;-76
2023/10/10 00:27:31;;;;;;;;;;;;;;;17.53;59.33;101061.75;6122452;23;7048;-75
2023/10/10 00:30:02;;;;;;;;;;;;;;;17.52;59.58;101055.69;6122325;23;7052;-75
2023/10/10 00:32:35;;;;;;;;;;;;;;;17.53;59.85;101057.47;6145268;23;7866;-74
2023/10/10 00:35:06;;;;;;;;;;;;;;;17.55;59.91;101060.09;6122967;23;7417;-75
2023/10/10 00:37:34;;;;;;;;;;;;;;;17.56;60.06;101057.53;6171131;23;7224;-76
2023/10/10 00:40:09;;;;;;;;;;;;;;;17.57;59.76;101046.34;6148382;23;6799;-75
2023/10/10 00:42:40;;;;;;;;;;;;;;;17.59;60.02;101043.78;6146767;23;6929;-76
2023/10/10 00:45:09;;;;;;;;;;;;;;;17.59;59.75;101047.28;6146202;23;6877;-76
2023/10/10 00:47:48;;;;;;;;;;;;;;;17.61;60.04;101048.19;6170681;23;7232;-76
2023/10/10 00:50:18;;;;;;;;;;;;;;;17.62;59.79;101042.19;6144869;23;7530;-76
2023/10/10 00:52:48;;;;;;;;;;;;;;;17.63;59.91;101046.53;6146438;23;6799;-75
2023/10/10 00:55:21;;;;;;;;;;;;;;;17.63;60.00;101046.53;6154819;23;6850;-76
2023/10/10 00:57:52;;;;;;;;;;;;;;;17.60;59.34;101040.38;6155160;23;6970;-79
2023/10/10 01:00:20;;;;;;;;;;;;;;;17.58;59.49;101044.63;6152990;23;6854;-74
2023/10/10 01:02:47;;;;;;;;;;;;;;;17.54;59.88;101038.47;6153684;23;6913;-78
2023/10/10 01:05:12;;;;;;;;;;;;;;;17.51;59.26;101035.81;6154383;23;6774;-77
2023/10/10 01:07:39;;;;;;;;;;;;;;;17.48;59.57;101035.72;6155010;23;6758;-80
2023/10/10 01:10:13;;;;;;;;;;;;;;;17.43;59.37;101025.22;6152210;23;6770;-79
2023/10/10 01:12:40;;;;;;;;;;;;;;;17.38;59.57;101021.59;6154611;23;6844;-80
2023/10/10 01:15:35;;;;;;;;;;;;;;;17.36;59.51;101033.63;6154436;23;6775;-80
2023/10/10 01:17:57;;;;;;;;;;;;;;;17.31;59.50;101025.72;6151899;23;6772;-80
2023/10/10 01:20:45;;;;;;;;;;;;;;;17.29;59.41;101029.09;6155636;23;6779;-75
2023/10/10 01:23:15;;;;;;;;;;;;;;;17.26;59.43;101021.25;6132668;23;6988;-79
2023/10/10 01:25:42;;;;;;;;;;;;;;;17.26;59.72;101029.00;6155252;23;6778;-75
2023/10/10 01:28:22;;;;;;;;;;;;;;;17.24;59.37;101026.38;6154540;23;6774;-80
2023/10/10 01:31:04;;;;;;;;;;;;;;;17.20;59.54;101017.63;6131738;23;6840;-76
2023/10/10 01:35:59;;;;;;;;;;;;;;;17.14;59.37;101020.03;6163843;23;6767;-78
2023/10/10 01:38:41;;;;;;;;;;;;;;;17.13;59.70;101009.63;6128402;23;6981;-79
2023/10/10 01:41:22;;;;;;;;;;;;;;;17.11;59.61;101006.13;6155731;23;6774;-74
2023/10/10 01:43:53;;;;;;;;;;;;;;;17.08;60.00;100996.53;6153910;23;6994;-80
2023/10/10 01:46:29;;;;;;;;;;;;;;;17.06;60.02;101001.66;6154788;23;6783;-79
2023/10/10 01:48:56;;;;;;;;;;;;;;;17.05;60.25;100992.13;6131110;23;6991;-75
2023/10/10 01:51:24;;;;;;;;;;;;;;;17.06;60.33;100991.28;6153115;23;6775;-75
2023/10/10 01:53:55;;;;;;;;;;;;;;;17.10;60.29;100987.09;6153110;23;6767;-77
2023/10/10 01:56:22;;;;;;;;;;;;;;;17.14;60.83;100985.47;6129833;23;7244;-78
2023/10/10 01:58:53;;;;;;;;;;;;;;;17.16;60.71;100984.69;6154629;23;6775;-77
2023/10/10 02:01:20;;;;;;;;;;;;;;;17.20;60.40;100988.25;6154965;23;6782;-79
2023/10/10 02:03:47;;;;;;;;;;;;;;;17.22;60.62;100989.19;6150785;23;7056;-72
2023/10/10 02:06:22;;;;;;;;;;;;;;;17.21;60.20;100984.84;6144424;23;6771;-72
2023/10/10 02:08:51;;;;;;;;;;;;;;;17.22;60.07;100984.00;6145581;23;6844;-72
2023/10/10 02:11:21;;;;;;;;;;;;;;;17.22;60.20;100984.00;6145757;23;6859;-73
2023/10/10 02:13:53;;;;;;;;;;;;;;;17.20;60.01;100988.25;6120851;23;7164;-73
2023/10/10 02:16:23;;;;;;;;;;;;;;;17.19;60.52;100981.28;6144963;23;6846;-72
2023/10/10 02:18:51;;;;;;;;;;;;;;;17.19;59.85;100983.88;6143627;23;6942;-72
2023/10/10 02:21:31;;;;;;;;;;;;;;;17.18;59.84;100985.63;6119896;23;7239;-72
2023/10/10 02:24:12;;;;;;;;;;;;;;;17.17;60.16;100982.97;6123465;23;6971;-72
2023/10/10 02:26:38;;;;;;;;;;;;;;;17.13;60.26;100974.22;6144896;23;6782;-73
2023/10/10 02:29:17;;;;;;;;;;;;;;;17.12;59.51;100974.19;6144428;23;6775;-73
2023/10/10 02:31:51;;;;;;;;;;;;;;;17.08;59.88;100978.41;6145616;23;6775;-73
2023/10/10 02:34:19;;;;;;;;;;;;;;;17.03;59.81;100977.38;6142366;23;6970;-73
2023/10/10 02:36:58;;;;;;;;;;;;;;;17.01;59.43;100969.56;6143778;23;7627;-73
2023/10/10 02:39:29;;;;;;;;;;;;;;;17.01;59.88;100976.44;6146454;23;6913;-72
2023/10/10 02:41:59;;;;;;;;;;;;;;;16.97;60.03;100966.81;6121831;23;6969;-73
2023/10/10 02:44:47;;;;;;;;;;;;;;;16.94;60.01;100965.00;6145087;23;6831;-72
2023/10/10 02:47:13;;;;;;;;;;;;;;;16.91;60.16;100962.31;6146072;23;7165;-72
2023/10/10 02:49:42;;;;;;;;;;;;;;;16.88;59.72;100960.50;6121355;23;6973;-72
2023/10/10 02:52:08;;;;;;;;;;;;;;;16.88;59.92;100960.50;6147261;23;6850;-72
2023/10/10 02:54:43;;;;;;;;;;;;;;;16.85;59.95;100954.34;6147197;23;6791;-72
2023/10/10 02:57:26;;;;;;;;;;;;;;;16.85;60.26;100960.44;6124529;23;6998;-73
2023/10/10 03:00:15;;;;;;;;;;;;;;;16.84;60.38;100960.38;6148311;23;6892;-72
2023/10/10 03:02:49;;;;;;;;;;;;;;;16.84;60.26;100957.78;6146370;23;11486;-72
2023/10/10 03:05:16;;;;;;;;;;;;;;;16.85;60.71;100951.78;6147704;23;6786;-72
2023/10/10 03:07:51;;;;;;;;;;;;;;;16.87;60.55;100950.09;6122474;23;7257;-72
2023/10/10 03:10:37;;;;;;;;;;;;;;;16.89;60.58;100951.91;6147110;23;7171;-73
2023/10/10 03:13:27;;;;;;;;;;;;;;;16.90;61.32;100953.66;6148113;23;7287;-73
2023/10/10 03:15:55;;;;;;;;;;;;;;;16.94;60.78;100954.66;6147593;23;6775;-75
2023/10/10 03:18:28;;;;;;;;;;;;;;;16.98;61.29;100959.06;6121696;23;7025;-76
2023/10/10 03:24:15;;;;;;;;;;;;;;;17.03;61.14;100962.72;6156785;23;6897;-76
2023/10/10 03:29:20;;;;;;;;;;;;;;;17.07;60.90;100955.94;6155721;23;6767;-75
2023/10/10 03:32:18;;;;;;;;;;;;;;;17.10;60.80;100948.25;6122985;23;7251;-75
2023/10/10 03:34:44;;;;;;;;;;;;;;;17.13;60.97;100947.47;6145658;23;7157;-76
2023/10/10 03:39:54;;;;;;;;;;;;;;;17.15;61.45;100940.63;6149572;23;6758;-75
2023/10/10 05:24:26;;;;;;;;;;;;;;;17.34;59.54;100918.72;6117470;23;6763;-73
2023/10/10 05:26:54;;;;;;;;;;;;;;;17.27;59.59;100921.97;6068312;23;7312;-70
2023/10/10 05:29:20;;;;;;;;;;;;;;;17.18;59.22;100920.88;6069063;23;6981;-71
2023/10/10 05:31:51;;;;;;;;;;;;;;;17.10;59.39;100918.91;6067992;23;6977;-71
2023/10/10 05:34:20;;;;;;;;;;;;;;;17.00;59.51;100915.09;6068544;23;7282;-72
2023/10/10 05:36:46;;;;;;;;;;;;;;;16.94;59.61;100914.06;6117418;23;6775;-72
2023/10/10 05:39:17;;;;;;;;;;;;;;;16.88;59.55;100913.91;6091968;23;6986;-72
2023/10/10 05:41:47;;;;;;;;;;;;;;;16.82;59.86;100913.72;6093052;23;7013;-72
2023/10/10 05:44:15;;;;;;;;;;;;;;;16.77;59.56;100920.47;6104695;23;6950;-73
2023/10/10 05:46:40;;;;;;;;;;;;;;;16.73;60.28;100910.84;6088323;23;7022;-72
2023/10/10 05:49:06;;;;;;;;;;;;;;;16.69;60.40;100917.63;6089816;23;6762;-72
2023/10/10 05:51:32;;;;;;;;;;;;;;;16.68;59.99;100923.63;6091790;23;6767;-73
2023/10/10 05:53:57;;;;;;;;;;;;;;;16.66;60.04;100920.13;6118216;23;6884;-74
2023/10/10 05:56:23;;;;;;;;;;;;;;;16.64;60.18;100914.91;6116462;23;6992;-73
2023/10/10 05:58:50;;;;;;;;;;;;;;;16.62;60.38;100913.97;6115531;23;6763;-72
2023/10/10 06:01:17;;;;;;;;;;;;;;;16.59;60.11;100913.91;6091331;23;6963;-73
2023/10/10 06:03:45;;;;;;;;;;;;;;;16.58;59.93;100913.84;6113723;23;6967;-73
2023/10/10 06:06:12;;;;;;;;;;;;;;;16.51;60.04;100916.25;6116074;23;6959;-73
2023/10/10 06:08:43;;;;;;;;;;;;;;;16.49;59.66;100914.44;6115711;23;7133;-72
2023/10/10 06:11:15;;;;;;;;;;;;;;;16.46;59.84;100911.72;6118174;23;6763;-72
2023/10/10 06:13:43;;;;;;;;;;;;;;;16.43;60.31;100899.59;6088956;23;7070;-73
2023/10/10 06:16:15;;;;;;;;;;;;;;;16.41;59.90;100901.22;6113349;23;8417;-73
2023/10/10 06:18:47;;;;;;;;;;;;;;;16.39;59.85;100908.06;6066951;23;7082;-73
2023/10/10 06:21:14;;;;;;;;;;;;;;;16.40;60.64;100906.38;6115562;23;6969;-72
2023/10/10 06:23:42;;;;;;;;;;;;;;;16.42;60.86;100905.59;6117202;23;6950;-73
2023/10/10 06:26:08;;;;;;;;;;;;;;;16.48;60.90;100908.38;6069587;23;6997;-73
2023/10/10 06:28:45;;;;;;;;;;;;;;;16.59;61.23;100920.75;6093121;23;7227;-73
2023/10/10 06:31:19;;;;;;;;;;;;;;;16.70;61.53;100918.53;6093979;23;7667;-72
2023/10/10 06:33:56;;;;;;;;;;;;;;;16.81;61.34;100917.13;6115693;23;7202;-72
2023/10/10 06:41:38;;;;;;;;;;;;;;;17.18;61.46;100917.38;6127485;23;6839;-73
2023/10/10 06:44:05;;;;;;;;;;;;;;;17.30;61.04;100915.16;6115390;23;6964;-71
2023/10/10 06:46:37;;;;;;;;;;;;;;;17.42;61.19;100916.34;6117580;23;6767;-73
2023/10/10 06:49:06;;;;;;;;;;;;;;;17.54;61.28;100914.09;6117657;23;6775;-73
2023/10/10 06:51:40;;;;;;;;;;;;;;;17.67;60.80;100914.41;6108506;23;7014;-74
2023/10/10 06:54:19;;;;;;;;;;;;;;;17.78;60.67;100913.00;6088567;23;6803;-73
2023/10/10 06:57:04;;;;;;;;;;;;;;;17.93;60.54;100914.22;6085537;23;6953;-73
2023/10/10 06:59:30;;;;;;;;;;;;;;;18.04;60.38;100913.72;6066564;23;6826;-72
2023/10/10 07:01:59;;;;;;;;;;;;;;;18.17;60.66;100912.31;6087630;23;6783;-73
2023/10/10 07:04:28;;;;;;;;;;;;;;;18.28;60.40;100907.38;6062127;23;7027;-73
2023/10/10 07:07:00;;;;;;;;;;;;;;;18.40;59.99;100911.13;6087550;23;6771;-72
2023/10/10 07:09:29;;;;;;;;;;;;;;;18.53;59.71;100904.47;6086869;23;6783;-72
2023/10/10 07:11:57;;;;;;;;;;;;;;;18.65;59.70;100907.38;6085345;23;6774;-73
2023/10/10 07:14:26;;;;;;;;;;;;;;;18.76;59.56;100904.16;6062825;23;6977;-72
2023/10/10 07:16:56;;;;;;;;;;;;;;;18.87;59.40;100908.69;6088093;23;6926;-72
2023/10/10 07:19:32;;;;;;;;;;;;;;;18.98;59.34;100901.16;6086442;23;7045;-72
2023/10/10 07:21:59;;;;;;;;;;;;;;;19.10;59.21;100903.19;6087445;23;6982;-73
2023/10/10 07:24:40;;;;;;;;;;;;;;;19.22;59.06;100899.97;6087418;23;6953;-72
2023/10/10 07:27:11;;;;;;;;;;;;;;;19.36;58.41;100896.75;6064492;23;6894;-73
2023/10/10 07:32:27;;;;;;;;;;;;;;;19.64;58.32;100892.09;6085907;23;6894;-73
2023/10/10 07:34:54;;;;;;;;;;;;;;;19.79;57.87;100904.50;6064798;23;6953;-72
2023/10/10 07:37:22;;;;;;;;;;;;;;;19.93;57.65;100904.72;6087516;23;6994;-73
2023/10/10 07:42:27;;;;;;;;;;;;;;;20.20;57.02;100903.47;6095795;23;6771;-73
2023/10/10 07:44:57;;;;;;;;;;;;;;;20.32;56.62;100897.56;6084608;23;6774;-74
2023/10/10 07:47:27;;;;;;;;;;;;;;;20.47;56.67;100894.34;6086341;23;6783;-72
2023/10/10 07:49:59;;;;;;;;;;;;;;;20.60;56.27;100892.78;6066647;23;6819;-72
2023/10/10 07:52:25;;;;;;;;;;;;;;;20.74;56.25;100890.38;6092228;23;6953;-73
2023/10/10 07:54:52;;;;;;;;;;;;;;;20.87;55.98;100891.47;6115561;23;6931;-73
2023/10/10 07:57:22;;;;;;;;;;;;;;;21.01;56.03;100899.47;6066362;23;6951;-74
2023/10/10 07:59:56;;;;;;;;;;;;;;;21.15;55.68;100892.69;6090543;23;6862;-73
2023/10/10 08:02:25;;;;;;;;;;;;;;;21.29;55.08;100894.59;6067485;23;7031;-73
2023/10/10 08:04:55;;;;;;;;;;;;;;;21.42;54.64;100891.25;6066511;23;6854;-72
2023/10/10 08:07:26;;;;;;;;;;;;;;;21.55;54.30;100889.66;6093332;23;6767;-72
2023/10/10 08:12:37;;;;;;;;;;;;;;;21.82;54.03;100885.59;6096515;23;6779;-72
2023/10/10 08:15:19;;;;;;;;;;;;;;;21.95;53.49;100883.97;6118265;23;6917;-72
2023/10/10 08:17:52;;;;;;;;;;;;;;;22.09;53.20;100884.09;6096095;23;6794;-73
2023/10/10 08:23:11;;;;;;;;;;;;;;;22.28;52.13;100882.47;6096143;23;6767;-72
2023/10/10 08:25:37;;;;;;;;;;;;;;;22.39;52.43;100879.06;6119082;23;6838;-74
2023/10/10 08:28:04;;;;;;;;;;;;;;;22.51;51.63;100881.81;6119345;23;7725;-73
2023/10/10 08:30:30;;;;;;;;;;;;;;;22.60;51.14;100875.75;6096077;23;6944;-73
2023/10/10 08:32:58;;;;;;;;;;;;;;;22.67;50.82;100879.28;6107588;23;6763;-72
2023/10/10 08:35:29;;;;;;;;;;;;;;;22.74;50.94;100868.88;6110279;23;6889;-74
2023/10/10 08:37:56;;;;;;;;;;;;;;;22.87;50.74;100871.53;6110621;23;6783;-74
2023/10/10 08:40:23;;;;;;;;;;;;;;;23.00;50.93;100877.69;6111421;23;6857;-73
2023/10/10 08:42:52;;;;;;;;;;;;;;;23.08;50.41;100868.16;6087491;23;6771;-73
2023/10/10 08:45:22;;;;;;;;;;;;;;;23.17;50.15;100867.28;6086502;23;6979;-73
2023/10/10 08:48:00;;;;;;;;;;;;;;;23.25;50.08;100868.19;6110909;23;6955;-72
2023/10/10 08:50:27;;;;;;;;;;;;;;;23.30;49.20;100868.25;6085562;23;6801;-74
2023/10/10 08:52:54;;;;;;;;;;;;;;;23.37;49.10;100864.78;6109733;23;7057;-73
2023/10/10 08:55:28;;;;;;;;;;;;;;;23.47;49.06;100863.03;6110812;23;6778;-74
2023/10/10 08:57:57;;;;;;;;;;;;;;;23.57;48.55;100866.56;6085395;23;6966;-74
2023/10/10 09:00:27;;;;;;;;;;;;;;;23.67;48.97;100860.47;6085848;23;6866;-72
2023/10/10 09:02:56;;;;;;;;;;;;;;;23.75;48.42;100865.69;6110046;23;6778;-73
2023/10/10 09:05:24;;;;;;;;;;;;;;;23.85;48.13;100856.09;6088496;23;6782;-83
2023/10/10 09:07:53;;;;;;;;;;;;;;;23.93;48.29;100859.59;6087923;23;7441;-81
2023/10/10 09:10:39;;;;;;;;;;;;;;;24.00;47.95;100861.34;6087314;23;7008;-82
2023/10/10 09:13:07;;;;;;;;;;;;;;;24.08;48.00;100863.13;6086250;23;7134;-80
2023/10/10 09:15:36;;;;;;;;;;;;;;;24.17;47.71;100862.22;6087401;23;7098;-83
2023/10/10 09:18:22;;;;;;;;;;;;;;;24.26;47.60;100872.69;6087167;23;6809;-81
2023/10/10 09:20:49;;;;;;;;;;;;;;;24.32;47.15;100867.44;6090100;23;6786;-78
2023/10/10 09:23:32;;;;;;;;;;;;;;;24.41;46.71;100863.94;6088724;23;6838;-80
2023/10/10 09:26:29;;;;;;;;;;;;;;;24.47;46.87;100866.53;6110937;23;7178;-84
2023/10/10 09:29:15;;;;;;;;;;;;;;;24.49;46.21;100859.53;6108659;23;6778;-82
2023/10/10 09:31:45;;;;;;;;;;;;;;;24.57;46.53;100861.28;6061744;23;6987;-82
2023/10/10 09:34:12;;;;;;;;;;;;;;;24.63;46.07;100861.28;6081942;23;6775;-78
2023/10/10 09:36:50;;;;;;;;;;;;;;;24.67;46.03;100860.38;6082178;23;7480;-77
2023/10/10 09:39:36;;;;;;;;;;;;;;;24.69;45.62;100872.59;6058612;23;6986;-83
2023/10/10 09:42:22;;;;;;;;;;;;;;;24.71;45.46;100861.25;6080249;23;7644;-82
2023/10/10 09:44:53;;;;;;;;;;;;;;;24.74;45.74;100867.34;6058277;23;7045;-80
2023/10/10 09:50:29;;;;;;;;;;;;;;;24.84;45.71;100864.72;6028862;23;6994;-80
2023/10/10 09:52:58;;;;;;;;;;;;;;;24.90;45.38;100864.69;6072285;23;6771;-81
2023/10/10 10:00:46;;;;;;;;;;;;;;;25.09;44.93;100865.47;6094896;23;7189;-82
2023/10/10 10:06:53;;;;;;;;;;;;;;;25.95;44.25;100857.94;6099533;23;6764;-80
2023/10/10 10:09:30;;;;;;;;;;;;;;;26.86;43.46;100852.63;6089119;23;6825;-79
2023/10/10 10:12:13;;;;;;;;;;;;;;;27.79;42.51;100856.56;6090863;23;6844;-82
2023/10/10 10:15:12;;;;;;;;;;;;;;;28.74;40.95;100849.59;6091375;23;6998;-76
2023/10/10 10:18:26;;;;;;;;;;;;;;;29.56;39.84;100848.72;6089348;23;6778;-79
2023/10/10 10:21:16;;;;;;;;;;;;;;;30.60;38.07;100838.06;6090122;23;6783;-77
2023/10/10 10:23:45;;;;;;;;;;;;;;;31.41;36.50;100844.50;6089436;23;6786;-79
2023/10/10 10:26:22;;;;;;;;;;;;;;;32.09;35.98;100837.84;6089271;23;6954;-82
2023/10/10 10:28:56;;;;;;;;;;;;;;;32.77;34.65;100843.34;6090104;23;6977;-80
2023/10/10 10:31:32;;;;;;;;;;;;;;;33.27;33.56;100845.84;6088047;23;6951;-82
2023/10/10 10:34:06;;;;;;;;;;;;;;;33.54;32.96;100843.03;6088471;23;6778;-79
2023/10/10 10:36:56;;;;;;;;;;;;;;;33.67;32.47;100846.91;6088890;23;6933;-83
2023/10/10 10:39:34;;;;;;;;;;;;;;;33.89;32.31;100844.19;6089123;23;6946;-79
2023/10/10 10:42:01;;;;;;;;;;;;;;;34.12;31.03;100845.03;6089678;23;6778;-80
2023/10/10 10:44:55;;;;;;;;;;;;;;;34.35;31.06;100832.47;6089034;23;6839;-82
2023/10/10 10:47:34;;;;;;;;;;;;;;;34.69;30.09;100840.72;6088568;23;6970;-82
2023/10/10 10:50:18;;;;;;;;;;;;;;;34.98;29.52;100834.03;6090644;23;6767;-78
2023/10/10 10:52:57;;;;;;;;;;;;;;;35.13;29.88;100836.91;6064000;23;7062;-79
2023/10/10 10:55:29;;;;;;;;;;;;;;;35.38;29.46;100835.72;6089178;23;6775;-83
2023/10/10 11:01:00;;;;;;;;;;;;;;;35.56;28.19;100832.16;6088773;23;6767;-80
2023/10/10 11:03:37;;;;;;;;;;;;;;;35.01;28.02;100833.88;6060744;23;7826;-78
2023/10/10 11:06:09;;;;;;;;;;;;;;;34.30;28.10;100831.84;6083519;23;6978;-82
2023/10/10 11:14:10;;;;;;;;;;;;;;;33.76;27.81;100832.38;6068422;23;7691;-82
2023/10/10 11:16:47;;;;;;;;;;;;;;;34.07;27.87;100825.72;6058251;23;7017;-82
2023/10/10 11:21:53;;;;;;;;;;;;;;;34.68;27.04;100812.41;6069364;23;6767;-80
2023/10/10 11:24:24;;;;;;;;;;;;;;;34.89;27.28;100811.34;6037457;23;7971;-80
2023/10/10 11:27:07;;;;;;;;;;;;;;;35.08;27.44;100810.50;6034319;23;7039;-74
2023/10/10 11:29:50;;;;;;;;;;;;;;;35.32;27.48;100815.56;6060503;23;6767;-73
2023/10/10 11:32:36;;;;;;;;;;;;;;;35.60;27.28;100808.88;6079843;23;6791;-73
2023/10/10 11:35:22;;;;;;;;;;;;;;;35.86;26.22;100803.97;6086581;23;6771;-74
2023/10/10 11:37:59;;;;;;;;;;;;;;;35.94;26.36;100798.25;6067776;23;6969;-74
2023/10/10 11:42:56;;;;;;;;;;;;;;;35.77;26.46;100800.00;6088612;23;6819;-73
2023/10/10 11:45:27;;;;;;;;;;;;;;;35.90;26.61;100799.34;6063673;23;6958;-73
2023/10/10 11:48:05;;;;;;;;;;;;;;;36.16;26.00;100789.97;6089914;23;6766;-75
2023/10/10 11:50:51;;;;;;;;;;;;;;;36.27;25.92;100782.28;6088697;23;6771;-73
2023/10/10 11:53:23;;;;;;;;;;;;;;;36.27;25.50;100781.41;6088661;23;7346;-73
2023/10/10 11:55:53;;;;;;;;;;;;;;;36.24;24.97;100786.91;6063096;23;7125;-73
2023/10/10 11:58:19;;;;;;;;;;;;;;;36.22;25.35;100783.47;6086433;23;6935;-74
2023/10/10 12:00:59;;;;;;;;;;;;;;;36.24;25.12;100773.56;6110437;23;8278;-74
2023/10/10 12:06:26;;;;;;;;;;;;;;;36.32;24.32;100771.34;6096541;23;6851;-75
2023/10/10 12:08:53;;;;;;;;;;;;;;;36.14;24.23;100771.41;6064336;23;7236;-74
2023/10/10 12:11:20;;;;;;;;;;;;;;;35.49;24.63;100784.53;6088926;23;6783;-73
2023/10/10 12:13:48;;;;;;;;;;;;;;;34.42;25.55;100767.44;6085257;23;7009;-73
2023/10/10 12:16:15;;;;;;;;;;;;;;;33.27;26.07;100772.38;6062943;23;6775;-74
2023/10/10 12:18:52;;;;;;;;;;;;;;;32.23;26.68;100769.28;6085688;23;7200;-74
2023/10/10 12:21:22;;;;;;;;;;;;;;;31.33;27.15;100772.38;6065777;23;6795;-74
2023/10/10 12:23:52;;;;;;;;;;;;;;;30.66;27.89;100773.59;6063142;23;7011;-75
2023/10/10 12:26:18;;;;;;;;;;;;;;;30.09;28.53;100776.06;6088291;23;6970;-75
2023/10/10 12:28:47;;;;;;;;;;;;;;;29.64;29.55;100775.44;6088868;23;6762;-72
2023/10/10 12:31:16;;;;;;;;;;;;;;;29.24;29.91;100778.16;6067272;23;8797;-74
2023/10/10 12:33:47;;;;;;;;;;;;;;;28.94;30.74;100772.69;6116610;23;7266;-72
2023/10/10 12:36:14;;;;;;;;;;;;;;;28.71;30.50;100769.69;6115766;23;6975;-72
2023/10/10 12:38:40;;;;;;;;;;;;;;;28.49;31.09;100767.50;6141236;23;6782;-72
2023/10/10 12:41:06;;;;;;;;;;;;;;;28.34;31.94;100764.28;6140908;23;6766;-73
2023/10/10 12:43:32;;;;;;;;;;;;;;;28.20;31.91;100763.69;6141029;23;6771;-72
2023/10/10 12:46:01;;;;;;;;;;;;;;;28.05;32.26;100760.44;6115706;23;6974;-74
2023/10/10 12:48:28;;;;;;;;;;;;;;;27.94;32.82;100767.69;6141161;23;6972;-72
2023/10/10 12:50:54;;;;;;;;;;;;;;;27.83;32.92;100767.88;6116431;23;6795;-72
2023/10/10 12:53:21;;;;;;;;;;;;;;;27.73;33.19;100762.75;6118128;23;6870;-73
2023/10/10 12:56:01;;;;;;;;;;;;;;;27.68;33.14;100766.38;6141344;23;6969;-73
2023/10/10 12:58:28;;;;;;;;;;;;;;;27.61;34.12;100763.00;6116641;23;7050;-72
2023/10/10 13:00:56;;;;;;;;;;;;;;;27.55;33.79;100758.72;6105972;23;7025;-74
2023/10/10 13:03:27;;;;;;;;;;;;;;;27.51;34.00;100761.38;6089287;23;6843;-74
2023/10/10 13:05:58;;;;;;;;;;;;;;;27.48;34.16;100764.06;6087205;23;6795;-71
2023/10/10 13:08:39;;;;;;;;;;;;;;;27.44;34.67;100755.34;6063607;23;7210;-71
2023/10/10 13:11:15;;;;;;;;;;;;;;;27.42;34.74;100758.00;6086809;23;6926;-72
2023/10/10 13:13:51;;;;;;;;;;;;;;;27.42;34.80;100755.38;6087592;23;6771;-72
2023/10/10 13:16:22;;;;;;;;;;;;;;;27.42;35.08;100757.13;6061985;23;7125;-72
2023/10/10 13:18:57;;;;;;;;;;;;;;;27.41;35.22;100750.13;6087249;23;6771;-73
2023/10/10 13:21:23;;;;;;;;;;;;;;;27.40;35.06;100743.13;6077530;23;6822;-72
2023/10/10 13:23:51;;;;;;;;;;;;;;;27.43;35.14;100748.38;6084863;23;6947;-74
2023/10/10 13:26:18;;;;;;;;;;;;;;;27.44;35.22;100745.69;6063106;23;7373;-73
2023/10/10 13:28:45;;;;;;;;;;;;;;;27.46;35.25;100743.03;6063019;23;7114;-75
2023/10/10 13:31:18;;;;;;;;;;;;;;;27.47;35.36;100744.78;6088442;23;6793;-72
2023/10/10 13:33:44;;;;;;;;;;;;;;;27.44;35.72;100745.69;6091402;23;7041;-73
2023/10/10 13:36:14;;;;;;;;;;;;;;;27.42;35.62;100741.34;6115637;23;6941;-71
2023/10/10 13:38:49;;;;;;;;;;;;;;;27.42;36.24;100741.34;6115999;23;6779;-72
2023/10/10 13:41:23;;;;;;;;;;;;;;;27.40;36.33;100736.13;6092662;23;6771;-72
2023/10/10 13:43:51;;;;;;;;;;;;;;;27.41;35.80;100731.72;6115328;23;6846;-72
2023/10/10 13:46:18;;;;;;;;;;;;;;;27.42;36.15;100726.44;6090626;23;7410;-75
2023/10/10 13:48:46;;;;;;;;;;;;;;;27.43;36.07;100722.91;6116554;23;6775;-75
2023/10/10 13:51:13;;;;;;;;;;;;;;;27.48;36.32;100722.81;6114995;23;6775;-76
2023/10/10 13:53:43;;;;;;;;;;;;;;;27.51;36.71;100727.16;6092739;23;6949;-76
2023/10/10 13:56:10;;;;;;;;;;;;;;;27.52;36.59;100719.22;6091661;23;7005;-75
2023/10/10 13:58:37;;;;;;;;;;;;;;;27.55;36.96;100721.84;6117594;23;6790;-75
2023/10/10 14:01:29;;;;;;;;;;;;;;;27.56;36.71;100715.69;6089319;23;6779;-74
2023/10/10 14:03:56;;;;;;;;;;;;;;;27.58;36.57;100723.56;6115936;23;6779;-75
2023/10/10 14:06:27;;;;;;;;;;;;;;;27.57;36.28;100717.44;6118831;23;6783;-75
2023/10/10 14:08:53;;;;;;;;;;;;;;;27.57;36.42;100722.69;6116183;23;7155;-75
2023/10/10 14:11:22;;;;;;;;;;;;;;;27.58;36.82;100727.06;6091570;23;6986;-75
2023/10/10 14:13:50;;;;;;;;;;;;;;;27.61;36.72;100720.00;6115080;23;7576;-74
2023/10/10 14:16:17;;;;;;;;;;;;;;;27.62;36.61;100717.34;6116177;23;7060;-76
2023/10/10 14:18:46;;;;;;;;;;;;;;;27.66;36.96;100719.00;6117247;23;6859;-75
2023/10/10 14:21:13;;;;;;;;;;;;;;;27.68;36.68;100711.09;6117191;23;6791;-76
2023/10/10 14:23:40;;;;;;;;;;;;;;;27.69;36.48;100713.72;6116496;23;7229;-75
2023/10/10 14:26:18;;;;;;;;;;;;;;;27.72;36.33;100715.44;6116375;23;6774;-76
2023/10/10 14:28:52;;;;;;;;;;;;;;;27.71;36.33;100718.94;6090460;23;7162;-75
2023/10/10 14:31:24;;;;;;;;;;;;;;;27.72;36.14;100707.53;6092269;23;6857;-75
2023/10/10 14:33:50;;;;;;;;;;;;;;;27.71;36.19;100709.28;6091539;23;6937;-75
2023/10/10 14:36:17;;;;;;;;;;;;;;;27.71;36.21;100711.03;6092598;23;6810;-76
2023/10/10 14:38:44;;;;;;;;;;;;;;;27.71;36.02;100704.00;6067558;23;7265;-76
2023/10/10 14:41:20;;;;;;;;;;;;;;;27.71;36.14;100698.75;6091289;23;6783;-76
2023/10/10 14:43:54;;;;;;;;;;;;;;;27.73;36.30;100698.72;6093475;23;6855;-75
2023/10/10 14:46:27;;;;;;;;;;;;;;;27.72;36.19;100697.00;6094311;23;6783;-76
2023/10/10 14:49:00;;;;;;;;;;;;;;;27.73;36.35;100693.47;6095641;23;6783;-75
2023/10/10 14:51:37;;;;;;;;;;;;;;;27.73;35.84;100698.72;6095355;23;6783;-77
2023/10/10 14:54:09;;;;;;;;;;;;;;;27.72;36.19;100694.38;6094999;23;6779;-75
2023/10/10 14:56:36;;;;;;;;;;;;;;;27.73;35.23;100696.94;6095380;23;6791;-73
2023/10/10 14:59:04;;;;;;;;;;;;;;;27.74;35.89;100695.19;6092253;23;7086;-73
2023/10/10 15:01:37;;;;;;;;;;;;;;;27.76;36.09;100687.25;6093655;23;6791;-73
2023/10/10 15:04:06;;;;;;;;;;;;;;;27.75;36.32;100689.03;6091230;23;6845;-73
2023/10/10 15:06:35;;;;;;;;;;;;;;;27.76;36.08;100689.88;6093294;23;6779;-73
2023/10/10 15:09:02;;;;;;;;;;;;;;;27.80;36.29;100687.16;6093837;23;7813;-73
2023/10/10 15:11:29;;;;;;;;;;;;;;;27.90;35.85;100679.97;6093547;23;6937;-73
2023/10/10 15:13:58;;;;;;;;;;;;;;;28.02;36.34;100686.75;6093545;23;6786;-73
2023/10/10 15:16:34;;;;;;;;;;;;;;;28.12;36.09;100680.41;6093805;23;6779;-73
2023/10/10 15:19:02;;;;;;;;;;;;;;;28.22;35.38;100681.09;6094393;23;6970;-73
2023/10/10 15:21:32;;;;;;;;;;;;;;;28.27;35.21;100681.00;6093023;23;6918;-73
2023/10/10 15:23:59;;;;;;;;;;;;;;;28.30;36.03;100678.31;6094497;23;6782;-73
2023/10/10 15:26:27;;;;;;;;;;;;;;;28.28;35.65;100680.97;6094043;23;6810;-73
2023/10/10 15:28:54;;;;;;;;;;;;;;;28.25;35.80;100674.88;6094013;23;6918;-73
2023/10/10 15:31:31;;;;;;;;;;;;;;;28.19;35.67;100673.25;6101959;23;6975;-73
2023/10/10 15:34:00;;;;;;;;;;;;;;;28.10;36.26;100676.94;6068229;23;7824;-73
2023/10/10 15:36:30;;;;;;;;;;;;;;;28.02;36.02;100673.59;6118208;23;6786;-72
2023/10/10 15:39:03;;;;;;;;;;;;;;;27.95;36.51;100670.19;6093497;23;8233;-73
2023/10/10 15:41:31;;;;;;;;;;;;;;;27.86;36.26;100673.88;6093185;23;6969;-73
2023/10/10 15:44:04;;;;;;;;;;;;;;;27.79;36.59;100674.03;6093215;23;7001;-73
2023/10/10 15:46:33;;;;;;;;;;;;;;;27.68;36.22;100667.22;6093410;23;7433;-72
2023/10/10 15:49:01;;;;;;;;;;;;;;;27.62;36.78;100669.06;6094361;23;6783;-72
2023/10/10 15:51:35;;;;;;;;;;;;;;;27.54;36.42;100663.94;6069241;23;7220;-72